createdAt,value
2019-01-26T00:00:57.102Z,13.80
2019-01-26T00:03:28.724Z,13.80
2019-01-26T00:06:00.257Z,14.00
2019-01-26T00:08:33.104Z,13.90
2019-01-26T00:11:04.789Z,14.10
2019-01-26T00:13:36.401Z,14.40
2019-01-26T00:16:07.985Z,14.50
2019-01-26T00:18:40.317Z,14.40
2019-01-26T00:21:12.039Z,14.20
2019-01-26T00:23:45.637Z,13.90
2019-01-26T00:26:17.604Z,13.80
2019-01-26T00:28:49.290Z,13.70
2019-01-26T00:31:21.113Z,13.60
2019-01-26T00:33:53.873Z,13.70
2019-01-26T00:36:26.089Z,13.70
2019-01-26T00:38:57.708Z,13.80
2019-01-26T00:41:29.305Z,13.80
2019-01-26T00:44:01.062Z,14.20
2019-01-26T00:46:32.940Z,14.10
2019-01-26T00:49:04.540Z,13.90
2019-01-26T00:51:36.198Z,13.80
2019-01-26T00:54:08.044Z,13.80
2019-01-26T00:56:39.414Z,13.80
2019-01-26T00:59:11.197Z,14.00
2019-01-26T01:01:43.109Z,14.30
2019-01-26T01:04:14.760Z,14.30
2019-01-26T01:06:46.448Z,14.20
2019-01-26T01:09:18.168Z,14.40
2019-01-26T01:11:49.813Z,14.20
2019-01-26T01:14:21.676Z,14.10
2019-01-26T01:16:53.224Z,14.10
2019-01-26T01:19:25.016Z,14.00
2019-01-26T01:21:57.735Z,13.80
2019-01-26T01:24:31.723Z,13.60
2019-01-26T01:27:04.087Z,13.40
2019-01-26T01:29:35.775Z,13.30
2019-01-26T01:32:07.985Z,13.20
2019-01-26T01:34:39.831Z,13.20
2019-01-26T01:37:12.661Z,13.20
2019-01-26T01:39:44.270Z,13.20
2019-01-26T01:42:16.047Z,13.30
2019-01-26T01:44:48.453Z,13.20
2019-01-26T01:47:21.289Z,13.10
2019-01-26T01:49:52.880Z,13.10
2019-01-26T01:52:24.557Z,13.10
2019-01-26T01:54:56.259Z,13.00
2019-01-26T01:57:27.754Z,13.00
2019-01-26T01:59:59.507Z,13.00
2019-01-26T02:02:31.034Z,12.90
2019-01-26T02:05:02.579Z,12.90
2019-01-26T02:07:34.151Z,12.90
2019-01-26T02:10:06.490Z,12.80
2019-01-26T02:12:38.004Z,12.80
2019-01-26T02:15:10.248Z,12.80
2019-01-26T02:17:42.098Z,12.70
2019-01-26T02:20:16.107Z,12.70
2019-01-26T02:22:48.608Z,12.70
2019-01-26T02:25:21.654Z,12.60
2019-01-26T02:27:53.170Z,12.50
2019-01-26T02:30:25.373Z,12.50
2019-01-26T02:32:56.904Z,12.50
2019-01-26T02:35:28.676Z,12.50
2019-01-26T02:38:00.261Z,12.50
2019-01-26T02:40:31.660Z,12.50
2019-01-26T02:43:18.727Z,12.50
2019-01-26T02:45:50.457Z,12.40
2019-01-26T02:48:22.733Z,12.40
2019-01-26T02:50:54.341Z,12.60
2019-01-26T02:53:26.947Z,12.70
2019-01-26T02:55:58.332Z,13.00
2019-01-26T02:58:29.706Z,13.10
2019-01-26T03:01:01.208Z,13.20
2019-01-26T03:03:33.679Z,13.40
2019-01-26T03:06:05.442Z,13.30
2019-01-26T03:08:37.186Z,13.20
2019-01-26T03:11:08.700Z,12.90
2019-01-26T03:13:40.253Z,12.70
2019-01-26T03:16:11.840Z,12.60
2019-01-26T03:18:43.473Z,12.40
2019-01-26T03:21:15.457Z,12.40
2019-01-26T03:23:46.853Z,12.40
2019-01-26T03:26:18.443Z,12.40
2019-01-26T03:28:50.291Z,12.70
2019-01-26T03:31:21.946Z,12.60
2019-01-26T03:33:53.571Z,12.80
2019-01-26T03:36:25.254Z,12.80
2019-01-26T03:38:58.413Z,12.60
2019-01-26T03:41:30.969Z,12.70
2019-01-26T03:44:02.668Z,12.90
2019-01-26T03:46:34.323Z,13.00
2019-01-26T03:49:06.014Z,12.80
2019-01-26T03:51:37.599Z,12.50
2019-01-26T03:54:10.447Z,12.30
2019-01-26T03:56:42.044Z,12.10
2019-01-26T03:59:13.867Z,12.10
2019-01-26T04:01:45.368Z,11.90
2019-01-26T04:04:17.553Z,11.90
2019-01-26T04:06:49.123Z,12.00
2019-01-26T04:09:20.770Z,12.10
2019-01-26T04:11:53.201Z,12.00
2019-01-26T04:14:25.920Z,12.00
2019-01-26T04:16:57.409Z,12.00
2019-01-26T04:19:29.684Z,12.10
2019-01-26T04:22:01.466Z,12.00
2019-01-26T04:24:34.013Z,12.10
2019-01-26T04:27:05.465Z,12.20
2019-01-26T04:29:37.026Z,12.30
2019-01-26T04:32:08.660Z,12.50
2019-01-26T04:34:40.292Z,12.90
2019-01-26T04:37:30.438Z,13.10
2019-01-26T04:40:02.765Z,13.30
2019-01-26T04:42:34.045Z,13.30
2019-01-26T04:45:06.422Z,13.30
2019-01-26T04:47:37.769Z,13.30
2019-01-26T04:50:11.455Z,13.30
2019-01-26T04:52:43.018Z,13.30
2019-01-26T04:55:15.771Z,13.30
2019-01-26T04:57:47.500Z,13.10
2019-01-26T05:00:25.656Z,12.80
2019-01-26T05:02:57.071Z,12.50
2019-01-26T05:05:28.765Z,12.40
2019-01-26T05:08:00.366Z,12.20
2019-01-26T05:10:32.068Z,12.30
2019-01-26T05:13:03.399Z,12.40
2019-01-26T05:15:34.973Z,12.50
2019-01-26T05:18:06.582Z,12.60
2019-01-26T05:20:38.114Z,12.50
2019-01-26T05:23:09.578Z,12.30
2019-01-26T05:25:41.333Z,12.20
2019-01-26T05:28:12.867Z,12.10
2019-01-26T05:30:44.373Z,12.00
2019-01-26T05:33:15.768Z,11.90
2019-01-26T05:35:47.598Z,11.90
2019-01-26T05:38:19.007Z,12.00
2019-01-26T05:40:50.873Z,12.40
2019-01-26T05:43:22.403Z,12.50
2019-01-26T05:45:54.884Z,12.30
2019-01-26T05:48:26.437Z,12.40
2019-01-26T05:50:57.884Z,12.50
2019-01-26T05:53:29.422Z,12.60
2019-01-26T05:56:02.037Z,12.90
2019-01-26T05:58:33.286Z,13.10
2019-01-26T06:01:05.820Z,13.30
2019-01-26T06:03:37.043Z,13.40
2019-01-26T06:06:09.136Z,13.50
2019-01-26T06:08:40.877Z,13.60
2019-01-26T06:11:12.409Z,13.70
2019-01-26T06:13:43.792Z,13.70
2019-01-26T06:16:15.430Z,13.60
2019-01-26T06:18:47.567Z,13.60
2019-01-26T06:21:19.223Z,13.60
2019-01-26T06:23:50.838Z,13.50
2019-01-26T06:26:22.360Z,13.60
2019-01-26T06:28:53.629Z,13.60
2019-01-26T06:31:25.247Z,13.70
2019-01-26T06:33:56.797Z,13.70
2019-01-26T06:36:29.616Z,13.60
2019-01-26T06:39:01.202Z,13.40
2019-01-26T06:41:33.410Z,13.70
2019-01-26T06:44:05.251Z,13.70
2019-01-26T06:46:36.861Z,13.80
2019-01-26T06:49:08.443Z,13.90
2019-01-26T06:51:54.529Z,13.90
2019-01-26T06:54:27.043Z,14.00
2019-01-26T06:56:58.722Z,14.00
2019-01-26T06:59:30.107Z,13.80
2019-01-26T07:02:01.831Z,13.90
2019-01-26T07:04:47.462Z,14.00
2019-01-26T07:07:20.392Z,14.00
2019-01-26T07:09:51.862Z,14.00
2019-01-26T07:12:24.375Z,14.10
2019-01-26T07:14:55.922Z,14.10
2019-01-26T07:17:38.882Z,14.10
2019-01-26T07:20:22.621Z,14.10
2019-01-26T07:22:54.158Z,14.20
2019-01-26T07:25:25.802Z,14.30
2019-01-26T07:27:57.508Z,14.40
2019-01-26T07:30:29.335Z,14.50
2019-01-26T07:33:00.904Z,14.40
2019-01-26T07:35:32.542Z,14.40
2019-01-26T07:38:04.414Z,14.40
2019-01-26T07:40:36.221Z,14.20
2019-01-26T07:43:08.146Z,14.10
2019-01-26T07:45:39.963Z,14.00
2019-01-26T07:48:16.715Z,13.80
2019-01-26T07:50:45.168Z,13.80
2019-01-26T07:53:16.832Z,13.70
2019-01-26T07:55:48.134Z,13.80
2019-01-26T07:58:19.754Z,13.80
2019-01-26T08:00:51.531Z,13.80
2019-01-26T08:03:22.959Z,13.80
2019-01-26T08:05:55.805Z,13.70
2019-01-26T08:08:27.266Z,13.80
2019-01-26T08:10:58.639Z,13.90
2019-01-26T08:13:30.376Z,14.20
2019-01-26T08:16:02.136Z,14.20
2019-01-26T08:18:33.584Z,14.20
2019-01-26T08:21:06.748Z,14.10
2019-01-26T08:23:38.418Z,14.30
2019-01-26T08:26:09.901Z,14.40
2019-01-26T08:28:41.151Z,14.50
2019-01-26T08:31:12.732Z,14.50
2019-01-26T08:33:44.437Z,14.80
2019-01-26T08:36:15.729Z,15.00
2019-01-26T08:38:47.257Z,15.00
2019-01-26T08:41:18.856Z,15.00
2019-01-26T08:44:01.934Z,14.90
2019-01-26T08:46:33.568Z,14.70
2019-01-26T08:49:05.019Z,14.60
2019-01-26T08:51:37.894Z,14.60
2019-01-26T08:54:09.364Z,14.80
2019-01-26T08:56:41.139Z,14.80
2019-01-26T08:59:12.447Z,14.80
2019-01-26T09:01:43.955Z,15.20
2019-01-26T09:04:22.714Z,15.50
2019-01-26T09:06:58.579Z,15.70
2019-01-26T09:09:30.861Z,15.90
2019-01-26T09:12:02.438Z,16.10
2019-01-26T09:14:34.329Z,16.10
2019-01-26T09:17:05.981Z,15.80
2019-01-26T09:19:38.218Z,16.00
2019-01-26T09:22:09.719Z,16.10
2019-01-26T09:24:40.974Z,16.10
2019-01-26T09:27:12.698Z,16.00
2019-01-26T09:29:44.229Z,16.10
2019-01-26T09:32:15.785Z,16.40
2019-01-26T09:34:47.295Z,16.70
2019-01-26T09:37:18.735Z,17.20
2019-01-26T09:39:50.083Z,18.10
2019-01-26T09:42:21.630Z,18.60
2019-01-26T09:44:54.462Z,19.10
2019-01-26T09:47:27.259Z,19.50
2019-01-26T09:49:59.076Z,19.30
2019-01-26T09:52:30.786Z,18.70
2019-01-26T09:55:03.399Z,18.50
2019-01-26T09:57:34.859Z,18.30
2019-01-26T10:00:09.116Z,18.60
2019-01-26T10:02:40.766Z,18.70
2019-01-26T10:05:12.406Z,18.20
2019-01-26T10:07:43.975Z,17.90
2019-01-26T10:10:15.691Z,17.90
2019-01-26T10:12:47.349Z,17.60
2019-01-26T10:15:19.993Z,17.50
2019-01-26T10:17:51.682Z,17.50
2019-01-26T10:20:26.664Z,17.50
2019-01-26T10:22:58.194Z,17.30
2019-01-26T10:25:29.737Z,17.10
2019-01-26T10:28:01.597Z,17.10
2019-01-26T10:31:01.480Z,17.00
2019-01-26T10:33:45.749Z,17.10
2019-01-26T10:36:34.979Z,17.00
2019-01-26T10:39:19.784Z,16.90
2019-01-26T10:42:17.707Z,17.10
2019-01-26T10:44:49.955Z,17.10
2019-01-26T10:47:33.557Z,17.30
2019-01-26T10:50:17.718Z,17.30
2019-01-26T10:52:55.698Z,17.20
2019-01-26T10:55:27.938Z,16.90
2019-01-26T10:58:03.791Z,16.70
2019-01-26T11:00:43.926Z,16.60
2019-01-26T11:03:25.359Z,16.50
2019-01-26T11:05:59.412Z,16.60
2019-01-26T11:08:36.956Z,16.70
2019-01-26T11:11:12.900Z,16.90
2019-01-26T11:14:03.066Z,16.80
2019-01-26T11:16:45.930Z,16.70
2019-01-26T11:19:18.008Z,16.60
2019-01-26T11:21:49.461Z,16.50
2019-01-26T11:24:21.592Z,16.40
2019-01-26T11:26:53.706Z,16.10
2019-01-26T11:29:25.387Z,15.80
2019-01-26T11:31:57.053Z,15.70
2019-01-26T11:34:29.098Z,15.60
2019-01-26T11:37:01.187Z,15.40
2019-01-26T11:39:32.465Z,15.40
2019-01-26T11:42:04.066Z,15.10
2019-01-26T11:44:35.469Z,14.90
2019-01-26T11:47:10.816Z,14.70
2019-01-26T11:49:48.395Z,14.60
2019-01-26T11:52:19.764Z,14.40
2019-01-26T11:55:07.202Z,14.30
2019-01-26T11:57:40.069Z,14.30
2019-01-26T12:00:48.224Z,14.20
2019-01-26T12:03:36.980Z,14.00
2019-01-26T12:06:36.147Z,13.90
2019-01-26T12:09:09.556Z,13.90
2019-01-26T12:11:41.250Z,14.00
2019-01-26T12:14:12.883Z,14.00
2019-01-26T12:16:45.666Z,14.00
2019-01-26T12:19:22.315Z,13.80
2019-01-26T12:21:51.725Z,13.80
2019-01-26T12:24:23.702Z,13.80
2019-01-26T12:26:55.273Z,13.80
2019-01-26T12:29:26.806Z,13.80
2019-01-26T12:31:58.755Z,13.80
2019-01-26T12:34:30.401Z,13.90
2019-01-26T12:37:01.956Z,13.80
2019-01-26T12:39:33.656Z,13.80
2019-01-26T12:42:05.220Z,13.70
2019-01-26T12:44:36.515Z,13.60
2019-01-26T12:47:07.907Z,13.60
2019-01-26T12:49:40.405Z,13.70
2019-01-26T12:52:12.024Z,13.70
2019-01-26T12:54:43.364Z,13.70
2019-01-26T12:57:15.056Z,13.60
2019-01-26T12:59:46.467Z,13.60
2019-01-26T13:02:18.208Z,13.60
2019-01-26T13:04:49.819Z,13.60
2019-01-26T13:07:21.369Z,13.60
2019-01-26T13:09:54.732Z,13.60
2019-01-26T13:12:27.246Z,13.60
2019-01-26T13:14:59.066Z,13.60
2019-01-26T13:17:30.450Z,13.50
2019-01-26T13:20:02.094Z,13.50
2019-01-26T13:22:33.762Z,13.50
2019-01-26T13:25:06.747Z,13.40
2019-01-26T13:27:38.607Z,13.40
2019-01-26T13:30:16.398Z,13.30
2019-01-26T13:33:00.890Z,13.30
2019-01-26T13:35:33.780Z,13.30
2019-01-26T13:38:05.511Z,13.30
2019-01-26T13:40:37.347Z,13.30
2019-01-26T13:43:09.767Z,13.20
2019-01-26T13:45:41.315Z,13.20
2019-01-26T13:48:13.769Z,13.10
2019-01-26T13:50:45.360Z,13.10
2019-01-26T13:53:16.956Z,13.10
2019-01-26T13:55:48.266Z,13.10
2019-01-26T13:58:20.409Z,13.10
2019-01-26T14:00:52.096Z,13.30
2019-01-26T14:03:23.652Z,13.30
2019-01-26T14:05:55.139Z,13.30
2019-01-26T14:08:26.559Z,13.20
2019-01-26T14:10:58.318Z,13.20
2019-01-26T14:13:29.795Z,13.20
2019-01-26T14:16:01.465Z,13.30
2019-01-26T14:18:34.036Z,13.40
2019-01-26T14:21:06.464Z,13.30
2019-01-26T14:23:38.067Z,13.20
2019-01-26T14:26:09.612Z,13.10
2019-01-26T14:28:41.284Z,13.00
2019-01-26T14:31:12.937Z,13.00
2019-01-26T14:33:44.485Z,13.00
2019-01-26T14:36:16.397Z,12.90
2019-01-26T14:38:48.092Z,13.00
2019-01-26T14:41:19.585Z,13.00
2019-01-26T14:43:52.102Z,13.00
2019-01-26T14:46:23.713Z,12.80
2019-01-26T14:48:55.993Z,12.80
2019-01-26T14:51:27.400Z,12.80
2019-01-26T14:53:58.705Z,12.80
2019-01-26T14:56:30.210Z,12.70
2019-01-26T14:59:01.691Z,12.70
2019-01-26T15:01:33.217Z,12.70
2019-01-26T15:04:05.404Z,12.50
2019-01-26T15:06:36.839Z,12.40
2019-01-26T15:09:10.150Z,12.30
2019-01-26T15:11:41.860Z,12.30
2019-01-26T15:14:13.257Z,12.30
2019-01-26T15:16:44.795Z,12.20
2019-01-26T15:19:17.351Z,12.10
2019-01-26T15:21:48.850Z,12.10
2019-01-26T15:24:20.846Z,12.10
2019-01-26T15:26:52.404Z,12.10
2019-01-26T15:29:24.063Z,12.10
2019-01-26T15:31:55.606Z,11.90
2019-01-26T15:34:27.218Z,11.80
2019-01-26T15:36:58.862Z,11.80
2019-01-26T15:39:30.234Z,12.00
2019-01-26T15:42:01.836Z,12.00
2019-01-26T15:44:34.058Z,12.00
2019-01-26T15:47:05.782Z,12.10
2019-01-26T15:49:37.376Z,12.10
2019-01-26T15:52:09.053Z,12.10
2019-01-26T15:54:40.701Z,12.40
2019-01-26T15:57:12.208Z,12.30
2019-01-26T15:59:43.387Z,12.20
2019-01-26T16:02:15.019Z,12.10
2019-01-26T16:04:47.077Z,11.90
2019-01-26T16:07:18.538Z,11.80
2019-01-26T16:09:51.402Z,11.80
2019-01-26T16:12:23.123Z,11.80
2019-01-26T16:14:54.538Z,11.70
2019-01-26T16:17:26.249Z,11.80
2019-01-26T16:19:58.419Z,11.90
2019-01-26T16:22:30.175Z,11.80
2019-01-26T16:25:01.827Z,11.70
2019-01-26T16:27:33.633Z,11.60
2019-01-26T16:30:06.697Z,11.50
2019-01-26T16:32:38.486Z,11.40
2019-01-26T16:35:12.158Z,11.40
2019-01-26T16:37:44.626Z,11.30
2019-01-26T16:40:20.141Z,11.20
2019-01-26T16:42:51.597Z,11.20
2019-01-26T16:45:25.465Z,11.20
2019-01-26T16:47:57.074Z,11.20
2019-01-26T16:50:30.023Z,11.20
2019-01-26T16:53:01.731Z,11.20
2019-01-26T16:55:33.122Z,11.20
2019-01-26T16:58:04.818Z,11.10
2019-01-26T17:00:47.174Z,11.00
2019-01-26T17:03:18.750Z,11.00
2019-01-26T17:05:50.381Z,11.00
2019-01-26T17:08:22.018Z,11.00
2019-01-26T17:10:54.528Z,10.90
2019-01-26T17:13:26.189Z,11.00
2019-01-26T17:15:57.748Z,11.00
2019-01-26T17:18:29.230Z,11.10
2019-01-26T17:21:00.757Z,11.10
2019-01-26T17:23:32.864Z,11.10
2019-01-26T17:26:04.534Z,11.10
2019-01-26T17:28:36.301Z,11.10
2019-01-26T17:31:07.758Z,11.10
2019-01-26T17:33:39.298Z,11.10
2019-01-26T17:36:10.992Z,11.00
2019-01-26T17:38:42.729Z,10.90
2019-01-26T17:41:14.566Z,10.90
2019-01-26T17:43:46.299Z,11.00
2019-01-26T17:46:18.471Z,10.90
2019-01-26T17:48:49.938Z,11.00
2019-01-26T17:51:22.711Z,10.90
2019-01-26T17:53:54.274Z,10.90
2019-01-26T17:56:25.519Z,10.90
2019-01-26T17:58:57.083Z,10.90
2019-01-26T18:01:29.638Z,11.00
2019-01-26T18:04:01.370Z,11.00
2019-01-26T18:06:32.958Z,11.00
2019-01-26T18:09:06.006Z,11.00
2019-01-26T18:11:37.519Z,11.00
2019-01-26T18:14:08.979Z,11.10
2019-01-26T18:16:40.572Z,11.10
2019-01-26T18:19:12.076Z,11.00
2019-01-26T18:21:43.396Z,10.90
2019-01-26T18:24:18.211Z,10.90
2019-01-26T18:27:01.063Z,10.90
2019-01-26T18:29:35.647Z,11.00
2019-01-26T18:32:19.150Z,11.00
2019-01-26T18:35:08.466Z,11.10
2019-01-26T18:37:49.682Z,11.00
2019-01-26T18:40:45.402Z,11.00
2019-01-26T18:47:08.357Z,10.80
2019-01-26T18:49:56.748Z,10.60
2019-01-26T18:52:55.150Z,10.70
2019-01-26T18:55:35.248Z,10.70
2019-01-26T18:58:17.971Z,10.70
2019-01-26T19:00:58.611Z,10.80
2019-01-26T19:03:45.312Z,10.80
2019-01-26T19:06:26.166Z,10.80
2019-01-26T19:09:07.462Z,10.80
2019-01-26T19:11:50.921Z,10.80
2019-01-26T19:14:31.334Z,10.80
2019-01-26T19:17:09.792Z,10.80
2019-01-26T19:19:46.864Z,10.70
2019-01-26T19:22:28.357Z,10.70
2019-01-26T19:25:05.929Z,10.70
2019-01-26T19:27:39.103Z,10.70
2019-01-26T19:30:12.293Z,10.70
2019-01-26T19:32:43.780Z,10.70
2019-01-26T19:35:15.516Z,10.70
2019-01-26T19:37:47.204Z,10.70
2019-01-26T19:40:20.198Z,10.70
2019-01-26T19:42:51.597Z,10.60
2019-01-26T19:45:23.103Z,10.60
2019-01-26T19:47:54.847Z,10.50
2019-01-26T19:50:26.621Z,10.60
2019-01-26T19:52:58.353Z,10.60
2019-01-26T19:55:30.299Z,10.60
2019-01-26T19:58:02.592Z,10.60
2019-01-26T20:00:34.585Z,10.60
2019-01-26T20:03:06.912Z,10.60
2019-01-26T20:05:38.623Z,10.60
2019-01-26T20:08:10.502Z,10.60
2019-01-26T20:10:42.149Z,10.60
2019-01-26T20:13:14.643Z,10.60
2019-01-26T20:15:46.152Z,10.60
2019-01-26T20:18:17.827Z,10.60
2019-01-26T20:20:49.579Z,10.60
2019-01-26T20:23:22.212Z,10.60
2019-01-26T20:25:54.579Z,10.60
2019-01-26T20:28:27.108Z,10.80
2019-01-26T20:30:59.310Z,10.80
2019-01-26T20:33:31.441Z,10.70
2019-01-26T20:36:03.816Z,10.70
2019-01-26T20:38:36.876Z,10.80
2019-01-26T20:41:09.801Z,10.60
2019-01-26T20:43:42.498Z,10.50
2019-01-26T20:46:15.154Z,10.50
2019-01-26T20:48:48.191Z,10.60
2019-01-26T20:51:24.845Z,10.50
2019-01-26T20:53:54.695Z,10.50
2019-01-26T20:56:26.875Z,10.50
2019-01-26T20:58:59.187Z,10.60
2019-01-26T21:01:32.074Z,10.60
2019-01-26T21:04:04.307Z,10.50
2019-01-26T21:06:36.346Z,10.20
2019-01-26T21:09:10.385Z,10.30
2019-01-26T21:11:42.685Z,10.30
2019-01-26T21:14:15.063Z,10.20
2019-01-26T21:16:47.094Z,10.20
2019-01-26T21:19:19.662Z,10.20
2019-01-26T21:21:53.103Z,10.30
2019-01-26T21:24:26.039Z,10.30
2019-01-26T21:26:58.606Z,10.30
2019-01-26T21:29:30.873Z,10.30
2019-01-26T21:32:02.253Z,10.20
2019-01-26T21:34:33.887Z,10.20
2019-01-26T21:37:05.388Z,10.20
2019-01-26T21:39:36.957Z,10.30
2019-01-26T21:42:08.461Z,10.40
2019-01-26T21:44:39.912Z,10.50
2019-01-26T21:47:11.405Z,10.50
2019-01-26T21:49:42.698Z,10.50
2019-01-26T21:52:14.285Z,10.60
2019-01-26T21:54:45.780Z,10.50
2019-01-26T21:57:17.224Z,10.40
2019-01-26T21:59:48.447Z,10.30
2019-01-26T22:02:20.020Z,10.20
2019-01-26T22:04:51.417Z,10.10
2019-01-26T22:07:23.133Z,10.00
2019-01-26T22:09:55.044Z,10.00
2019-01-26T22:12:26.379Z,9.90
2019-01-26T22:14:58.050Z,9.90
2019-01-26T22:17:29.604Z,9.90
2019-01-26T22:20:01.280Z,9.80
2019-01-26T22:22:33.066Z,9.90
2019-01-26T22:25:07.199Z,10.10
2019-01-26T22:27:38.791Z,10.00
2019-01-26T22:30:17.703Z,10.00
2019-01-26T22:32:49.173Z,9.90
2019-01-26T22:35:20.784Z,9.90
2019-01-26T22:37:52.299Z,9.90
2019-01-26T22:40:25.973Z,9.90
2019-01-26T22:42:57.295Z,9.90
2019-01-26T22:45:29.389Z,9.90
2019-01-26T22:48:00.824Z,9.90
2019-01-26T22:50:32.623Z,9.90
2019-01-26T22:53:04.458Z,9.80
2019-01-26T22:55:35.897Z,9.70
2019-01-26T22:58:07.374Z,9.70
2019-01-26T23:00:55.242Z,9.70
2019-01-26T23:03:39.259Z,9.70
2019-01-26T23:06:45.845Z,9.70
2019-01-26T23:09:40.546Z,9.70
2019-01-26T23:12:45.395Z,9.70
2019-01-26T23:15:53.699Z,9.70
2019-01-26T23:19:00.745Z,9.60
2019-01-26T23:22:23.966Z,9.60
2019-01-26T23:25:37.032Z,9.70
2019-01-26T23:28:43.673Z,9.60
2019-01-26T23:31:17.784Z,9.70
2019-01-26T23:33:51.290Z,9.60
2019-01-26T23:36:22.734Z,9.60
2019-01-26T23:38:53.996Z,9.60
2019-01-26T23:41:25.503Z,9.60
2019-01-26T23:43:56.819Z,9.70
2019-01-26T23:46:30.107Z,9.70
2019-01-26T23:49:01.525Z,9.80
2019-01-26T23:51:33.864Z,9.90
2019-01-26T23:54:05.496Z,9.90
2019-01-26T23:56:37.105Z,10.00
2019-01-26T23:59:08.710Z,10.00
